Nanuq — WDE6894 — position and weather

sailwx.info

Track history (hours):
 
Tides and Currents Weather Stations Pressure Air Temp Water Temp Dewpoint Dewpoint Depression Visibility Wind Speed Wind Dir Waves Ship Positions

Nanuq

Owner: Doncaster Mr, Glenn W, Raleigh, NC. More information available from US FCC via Universal Licensing System and Coast Guard Vessel Documentation Center.

Last reported at 2018-Feb-14 15:24 UTC. Time now 2018-Feb-19 16:25 UTC.
Position N 25°43' W 080°06'.

Length 13 m.

Type: Sailing vessel. MMSI: 367386290.

Date/timePositionNaut miles runAvg speedWind from/ knotsBaromVisibWave heightAir tempDewpointWater temp
2018-Feb-14 15:24N 25°43' W 080°06'2 4.8
2018-Feb-14 15:00N 25°45' W 080°06'1 1.4
2018-Feb-14 14:29N 25°45' W 080°05'2 3.1
2018-Feb-14 14:00N 25°45' W 080°07'2 3.2
2018-Feb-14 13:30N 25°46' W 080°08'0 0.3
2018-Feb-14 12:57N 25°46' W 080°08'0 0.0
2018-Feb-14 12:30N 25°46' W 080°08'0 0.0
2018-Feb-14 11:39N 25°46' W 080°08'0 0.0
2018-Feb-14 11:27N 25°46' W 080°08'0 0.0
2018-Feb-14 11:00N 25°46' W 080°08'0 0.0
2018-Feb-14 10:30N 25°46' W 080°08'0 0.0
2018-Feb-14 10:00N 25°46' W 080°08'0 0.0
2018-Feb-14 09:30N 25°46' W 080°08'0 0.0
2018-Feb-14 08:57N 25°46' W 080°08'0 0.0
2018-Feb-14 08:27N 25°46' W 080°08'0 0.0
2018-Feb-14 08:00N 25°46' W 080°08'0 0.0
2018-Feb-14 07:30N 25°46' W 080°08'0 0.0
2018-Feb-14 06:57N 25°46' W 080°08'0 0.0
2018-Feb-14 06:30N 25°46' W 080°08'0 0.0
2018-Feb-14 05:57N 25°46' W 080°08'0 0.0
2018-Feb-14 05:27N 25°46' W 080°08'0 0.0
2018-Feb-14 04:51N 25°46' W 080°08'0 0.0
2018-Feb-14 04:30N 25°46' W 080°08'0 0.0
2018-Feb-14 04:00N 25°46' W 080°08'0 0.0
2018-Feb-14 03:30N 25°46' W 080°08'0 0.0
2018-Feb-14 03:00N 25°46' W 080°08'0 0.0
2018-Feb-14 02:30N 25°46' W 080°08'0 0.0
2018-Feb-14 02:00N 25°46' W 080°08'0 0.0
2018-Feb-14 01:30N 25°46' W 080°08'0 0.0
2018-Feb-14 01:00N 25°46' W 080°08'0 0.0
2018-Feb-14 00:30N 25°46' W 080°08'0 0.0
2018-Feb-14 00:00N 25°46' W 080°08'0 0.0
2018-Feb-13 23:30N 25°46' W 080°08'0 0.0
2018-Feb-13 22:57N 25°46' W 080°08'0 0.0
2018-Feb-13 22:27N 25°46' W 080°08'0 0.0
2018-Feb-13 22:00N 25°46' W 080°08'2 3.5
2018-Feb-13 21:30N 25°46' W 080°06'5 6.2
2018-Feb-13 20:38N 25°51' W 080°06'2 7.3
2018-Feb-13 20:24N 25°53' W 080°06'3 7.1
2018-Feb-13 19:56N 25°56' W 080°07'3 6.8
2018-Feb-13 19:26N 25°59' W 080°06'2 3.9
2018-Feb-13 18:55N 26°00' W 080°04'2 4.0
2018-Feb-13 18:27N 26°02' W 080°04'3 6.5
2018-Feb-13 17:57N 26°05' W 080°06'2 0.0
2018-Feb-11 22:46N 26°07' W 080°06'0 0.0
2018-Feb-11 22:16N 26°07' W 080°06'  
Track history (hours):
 
Tides and Currents Weather Stations Pressure Air Temp Water Temp Dewpoint Dewpoint Depression Visibility Wind Speed Wind Dir Waves Ship Positions

Nanuq

Owner: Doncaster Mr, Glenn W, Raleigh, NC. More information available from US FCC via Universal Licensing System and Coast Guard Vessel Documentation Center.

Last reported at 2018-Feb-14 15:24 UTC. Time now 2018-Feb-19 16:25 UTC.
Position N 25°43' W 080°06'.

Length 13 m.

Type: Sailing vessel. MMSI: 367386290.

Date/timePositionNaut miles runAvg speedWind from/ knotsBaromVisibWave heightAir tempDewpointWater temp
2018-Feb-14 15:24N 25°43' W 080°06'2 4.8
2018-Feb-14 15:00N 25°45' W 080°06'1 1.4
2018-Feb-14 14:29N 25°45' W 080°05'2 3.1
2018-Feb-14 14:00N 25°45' W 080°07'2 3.2
2018-Feb-14 13:30N 25°46' W 080°08'0 0.3
2018-Feb-14 12:57N 25°46' W 080°08'0 0.0
2018-Feb-14 12:30N 25°46' W 080°08'0 0.0
2018-Feb-14 11:39N 25°46' W 080°08'0 0.0
2018-Feb-14 11:27N 25°46' W 080°08'0 0.0
2018-Feb-14 11:00N 25°46' W 080°08'0 0.0
2018-Feb-14 10:30N 25°46' W 080°08'0 0.0
2018-Feb-14 10:00N 25°46' W 080°08'0 0.0
2018-Feb-14 09:30N 25°46' W 080°08'0 0.0
2018-Feb-14 08:57N 25°46' W 080°08'0 0.0
2018-Feb-14 08:27N 25°46' W 080°08'0 0.0
2018-Feb-14 08:00N 25°46' W 080°08'0 0.0
2018-Feb-14 07:30N 25°46' W 080°08'0 0.0
2018-Feb-14 06:57N 25°46' W 080°08'0 0.0
2018-Feb-14 06:30N 25°46' W 080°08'0 0.0
2018-Feb-14 05:57N 25°46' W 080°08'0 0.0
2018-Feb-14 05:27N 25°46' W 080°08'0 0.0
2018-Feb-14 04:51N 25°46' W 080°08'0 0.0
2018-Feb-14 04:30N 25°46' W 080°08'0 0.0
2018-Feb-14 04:00N 25°46' W 080°08'0 0.0
2018-Feb-14 03:30N 25°46' W 080°08'0 0.0
2018-Feb-14 03:00N 25°46' W 080°08'0 0.0
2018-Feb-14 02:30N 25°46' W 080°08'0 0.0
2018-Feb-14 02:00N 25°46' W 080°08'0 0.0
2018-Feb-14 01:30N 25°46' W 080°08'0 0.0
2018-Feb-14 01:00N 25°46' W 080°08'0 0.0
2018-Feb-14 00:30N 25°46' W 080°08'0 0.0
2018-Feb-14 00:00N 25°46' W 080°08'0 0.0
2018-Feb-13 23:30N 25°46' W 080°08'0 0.0
2018-Feb-13 22:57N 25°46' W 080°08'0 0.0
2018-Feb-13 22:27N 25°46' W 080°08'0 0.0
2018-Feb-13 22:00N 25°46' W 080°08'2 3.5
2018-Feb-13 21:30N 25°46' W 080°06'5 6.2
2018-Feb-13 20:38N 25°51' W 080°06'2 7.3
2018-Feb-13 20:24N 25°53' W 080°06'3 7.1
2018-Feb-13 19:56N 25°56' W 080°07'3 6.8
2018-Feb-13 19:26N 25°59' W 080°06'2 3.9
2018-Feb-13 18:55N 26°00' W 080°04'2 4.0
2018-Feb-13 18:27N 26°02' W 080°04'3 6.5
2018-Feb-13 17:57N 26°05' W 080°06'2 0.0
2018-Feb-11 22:46N 26°07' W 080°06'0 0.0
2018-Feb-11 22:16N 26°07' W 080°06'  

Dump ship's entire track history